Time;durP1;ratioP1;P1;durP2;ratioP2;P2;SDS_P1;SDS_P2;PMS_P1;PMS_P2;Temp;Humidity;BMP_temperature;BMP_pressure;BME280_temperature;BME280_humidity;BME280_pressure;Samples;Min_cycle;Max_cycle;Signal;HPM_P1;HPM_P2
2024/04/14 00:00:42;;;;;;;0.30;0.20;;;17.70;95.80;;;;;;5513368;25;20824;-73
2024/04/14 00:03:08;;;;;;;0.73;0.73;;;17.70;95.70;;;;;;5513366;25;20460;-73
2024/04/14 00:05:34;;;;;;;0.50;0.50;;;17.70;95.70;;;;;;5511502;26;20437;-74
2024/04/14 00:08:00;;;;;;;0.30;0.20;;;17.70;95.70;;;;;;5512630;25;20562;-74
2024/04/14 00:10:25;;;;;;;1.03;1.03;;;17.70;95.80;;;;;;5511487;26;20934;-73
2024/04/14 00:12:51;;;;;;;0.30;0.30;;;17.70;96.10;;;;;;5512554;25;20233;-74
2024/04/14 00:15:18;;;;;;;0.73;0.73;;;17.60;96.00;;;;;;5512502;25;20332;-73
2024/04/14 00:17:44;;;;;;;0.30;0.30;;;17.50;96.20;;;;;;5512521;25;20638;-74
2024/04/14 00:20:11;;;;;;;0.30;0.20;;;17.40;95.90;;;;;;5511246;26;20452;-73
2024/04/14 00:22:37;;;;;;;0.30;0.20;;;17.30;96.00;;;;;;5510482;26;20453;-74
2024/04/14 00:25:03;;;;;;;0.30;0.20;;;17.30;96.20;;;;;;5511021;26;20560;-74
2024/04/14 00:27:29;;;;;;;0.67;0.67;;;17.20;96.30;;;;;;5512223;26;20586;-73
2024/04/14 00:29:54;;;;;;;0.30;0.20;;;17.10;96.30;;;;;;5512853;26;20843;-74
2024/04/14 00:32:20;;;;;;;0.30;0.20;;;17.10;96.40;;;;;;5511920;25;20232;-74
2024/04/14 00:34:46;;;;;;;0.30;0.20;;;17.00;96.40;;;;;;5510707;26;20262;-74
2024/04/14 00:37:12;;;;;;;0.60;0.60;;;17.00;96.50;;;;;;5510313;26;20240;-74
2024/04/14 00:39:38;;;;;;;0.87;0.87;;;17.00;96.50;;;;;;5512538;26;20770;-74
2024/04/14 00:42:04;;;;;;;0.30;0.20;;;17.00;96.50;;;;;;5511998;25;20592;-74
2024/04/14 00:44:29;;;;;;;3.70;1.20;;;17.00;96.50;;;;;;5512536;25;21069;-74
2024/04/14 00:46:55;;;;;;;0.70;0.67;;;17.00;96.70;;;;;;5511954;26;20244;-74
2024/04/14 00:49:22;;;;;;;0.30;0.30;;;17.00;96.50;;;;;;5515484;25;20236;-74
2024/04/14 00:51:47;;;;;;;0.47;0.47;;;17.00;96.60;;;;;;5507803;26;20259;-75
2024/04/14 00:54:17;;;;;;;0.30;0.20;;;17.00;96.60;;;;;;5479068;26;20533;-74
2024/04/14 00:56:45;;;;;;;0.50;0.50;;;17.00;96.60;;;;;;5484441;26;20232;-73
2024/04/14 00:59:12;;;;;;;0.40;0.40;;;17.00;96.60;;;;;;5478948;26;20454;-74
2024/04/14 01:01:37;;;;;;;0.30;0.20;;;17.10;96.60;;;;;;5490276;26;20449;-74
2024/04/14 01:04:03;;;;;;;0.30;0.27;;;17.00;96.60;;;;;;5514274;26;20564;-73
2024/04/14 01:06:29;;;;;;;0.40;0.30;;;17.00;97.00;;;;;;5507615;26;20733;-73
2024/04/14 01:08:54;;;;;;;0.73;0.47;;;17.00;96.70;;;;;;5479175;26;20937;-74
2024/04/14 01:11:21;;;;;;;0.30;0.27;;;17.10;96.70;;;;;;5485579;26;20379;-73
2024/04/14 01:13:47;;;;;;;0.80;0.80;;;17.10;96.70;;;;;;5515680;25;20356;-73
2024/04/14 01:16:13;;;;;;;0.30;0.20;;;17.10;96.70;;;;;;5513955;26;20929;-73
2024/04/14 01:18:38;;;;;;;0.30;0.20;;;17.10;96.60;;;;;;5513267;26;20452;-74
2024/04/14 01:21:05;;;;;;;0.30;0.20;;;17.10;96.60;;;;;;5515417;26;20216;-73
2024/04/14 01:23:33;;;;;;;0.50;0.47;;;17.10;96.70;;;;;;5513998;26;20248;-75
2024/04/14 01:25:58;;;;;;;0.40;0.30;;;17.10;96.70;;;;;;5515410;26;20446;-73
2024/04/14 01:28:24;;;;;;;0.83;0.83;;;17.10;96.90;;;;;;5513348;26;20457;-75
2024/04/14 01:30:50;;;;;;;0.30;0.20;;;17.10;97.00;;;;;;5515860;25;20215;-74
2024/04/14 01:33:15;;;;;;;9.10;1.90;;;17.10;96.80;;;;;;5513153;26;20247;-74
2024/04/14 01:35:41;;;;;;;0.50;0.50;;;17.00;96.80;;;;;;5515784;25;20254;-73
2024/04/14 01:38:07;;;;;;;0.50;0.50;;;16.90;96.90;;;;;;5513371;26;20272;-75
2024/04/14 01:40:33;;;;;;;0.30;0.20;;;16.90;97.00;;;;;;5513586;26;20263;-73
2024/04/14 01:42:59;;;;;;;4.57;1.13;;;16.90;97.00;;;;;;5513185;26;20266;-74
2024/04/14 01:45:24;;;;;;;0.53;0.53;;;16.90;97.00;;;;;;5513621;26;20235;-74
2024/04/14 01:47:50;;;;;;;0.30;0.20;;;16.80;97.00;;;;;;5514616;25;20701;-73
2024/04/14 01:50:16;;;;;;;0.30;0.20;;;16.90;97.10;;;;;;5513519;26;20227;-73
2024/04/14 01:52:41;;;;;;;0.30;0.20;;;16.90;97.10;;;;;;5513050;26;20248;-74
2024/04/14 01:55:07;;;;;;;0.30;0.20;;;16.90;97.10;;;;;;5515808;25;20223;-74
2024/04/14 01:57:34;;;;;;;0.33;0.33;;;16.90;97.10;;;;;;5513690;25;20639;-74
2024/04/14 01:59:59;;;;;;;0.30;0.20;;;16.90;97.10;;;;;;5513059;26;20444;-74
2024/04/14 02:02:25;;;;;;;0.30;0.30;;;16.90;97.20;;;;;;5514666;26;20973;-74
2024/04/14 02:04:52;;;;;;;0.30;0.27;;;16.80;97.20;;;;;;5513773;26;20959;-73
2024/04/14 02:07:18;;;;;;;0.40;0.40;;;16.80;97.20;;;;;;5513120;26;20232;-73
2024/04/14 02:09:44;;;;;;;0.30;0.20;;;16.80;97.30;;;;;;5513852;26;20547;-73
2024/04/14 02:12:10;;;;;;;0.30;0.27;;;16.80;97.30;;;;;;5514181;25;20449;-73
2024/04/14 02:14:36;;;;;;;0.30;0.30;;;16.80;97.70;;;;;;5514643;25;20461;-73
2024/04/14 02:17:02;;;;;;;1.40;0.43;;;16.80;97.50;;;;;;5514270;25;20509;-73
2024/04/14 02:19:27;;;;;;;0.30;0.20;;;16.80;97.60;;;;;;5514528;25;20445;-73
2024/04/14 02:21:53;;;;;;;0.57;0.57;;;16.80;97.60;;;;;;5512830;26;20666;-74
2024/04/14 02:24:19;;;;;;;0.30;0.20;;;16.80;97.70;;;;;;5514485;25;20340;-73
2024/04/14 02:26:44;;;;;;;0.37;0.30;;;16.80;97.70;;;;;;5514501;25;20595;-73
2024/04/14 02:29:10;;;;;;;0.30;0.20;;;16.80;97.60;;;;;;5513137;26;20235;-74
2024/04/14 02:31:36;;;;;;;0.40;0.40;;;16.90;97.60;;;;;;5512661;26;20698;-74
2024/04/14 02:34:01;;;;;;;0.30;0.20;;;16.80;97.60;;;;;;5514422;25;20776;-74
2024/04/14 02:36:28;;;;;;;0.43;0.40;;;16.70;98.00;;;;;;5512311;26;20285;-74
2024/04/14 02:38:54;;;;;;;0.60;0.60;;;16.60;97.80;;;;;;5512832;26;20350;-74
2024/04/14 02:41:19;;;;;;;0.40;0.40;;;16.50;97.90;;;;;;5513770;25;21016;-74
2024/04/14 02:43:45;;;;;;;0.67;0.60;;;16.50;98.00;;;;;;5512617;26;20473;-73
2024/04/14 02:46:11;;;;;;;0.87;0.43;;;16.50;98.10;;;;;;5512561;26;20236;-73
2024/04/14 02:48:38;;;;;;;0.40;0.33;;;16.40;98.10;;;;;;5513802;25;20231;-75
2024/04/14 02:51:04;;;;;;;0.30;0.20;;;16.40;98.20;;;;;;5512560;26;20499;-74
2024/04/14 02:53:30;;;;;;;1.13;0.70;;;16.30;98.30;;;;;;5512392;26;20464;-73
2024/04/14 02:55:55;;;;;;;0.30;0.20;;;16.30;98.40;;;;;;5514098;25;20481;-73
2024/04/14 02:58:21;;;;;;;0.30;0.20;;;16.30;98.40;;;;;;5512118;26;20508;-73
2024/04/14 03:00:47;;;;;;;0.30;0.20;;;16.30;98.40;;;;;;5512403;26;20320;-73
2024/04/14 03:03:12;;;;;;;0.40;0.40;;;16.30;98.50;;;;;;5513956;25;20467;-74
2024/04/14 03:05:39;;;;;;;0.30;0.20;;;16.30;98.50;;;;;;5514404;25;20258;-73
2024/04/14 03:08:05;;;;;;;0.30;0.20;;;16.30;98.60;;;;;;5511932;26;20239;-74
2024/04/14 03:10:32;;;;;;;0.40;0.40;;;16.20;98.60;;;;;;5512547;25;20956;-74
2024/04/14 03:12:57;;;;;;;0.40;0.40;;;16.30;98.70;;;;;;5513521;25;20501;-74
2024/04/14 03:15:23;;;;;;;0.40;0.40;;;16.30;98.70;;;;;;5512246;26;20461;-73
2024/04/14 03:17:49;;;;;;;0.37;0.37;;;16.30;98.70;;;;;;5511718;26;20656;-73
2024/04/14 03:20:15;;;;;;;0.30;0.20;;;16.40;98.70;;;;;;5512911;26;20227;-73
2024/04/14 03:22:41;;;;;;;0.30;0.30;;;16.50;98.70;;;;;;5513441;25;20331;-74
2024/04/14 03:25:06;;;;;;;0.83;0.83;;;16.60;98.70;;;;;;5514205;25;20557;-74
2024/04/14 03:27:32;;;;;;;0.40;0.40;;;16.60;98.50;;;;;;5513174;26;20507;-74
2024/04/14 03:29:58;;;;;;;0.30;0.20;;;16.50;98.50;;;;;;5513877;25;20583;-73
2024/04/14 03:32:23;;;;;;;0.30;0.30;;;16.50;98.50;;;;;;5511421;26;20231;-73
2024/04/14 03:34:52;;;;;;;1.37;1.27;;;16.50;98.50;;;;;;5512461;26;20223;-73
2024/04/14 03:37:18;;;;;;;0.97;0.97;;;16.50;98.60;;;;;;5513351;26;20240;-73
2024/04/14 03:39:43;;;;;;;0.30;0.20;;;16.50;98.60;;;;;;5513702;25;20428;-73
2024/04/14 03:42:10;;;;;;;0.50;0.50;;;16.50;98.70;;;;;;5513459;26;20228;-74
2024/04/14 03:44:36;;;;;;;0.30;0.20;;;16.50;98.70;;;;;;5513665;25;20287;-74
2024/04/14 03:47:02;;;;;;;0.40;0.40;;;16.40;98.70;;;;;;5513110;25;20788;-73
2024/04/14 03:49:27;;;;;;;0.30;0.30;;;16.40;98.80;;;;;;5513216;25;20739;-74
2024/04/14 03:51:53;;;;;;;0.30;0.30;;;16.40;98.80;;;;;;5511499;26;20618;-73
2024/04/14 03:54:19;;;;;;;0.33;0.30;;;16.40;98.90;;;;;;5511650;26;20274;-74
2024/04/14 03:56:45;;;;;;;0.30;0.20;;;16.40;98.90;;;;;;5512865;25;20262;-74
2024/04/14 03:59:11;;;;;;;0.30;0.20;;;16.40;98.90;;;;;;5511994;26;20461;-74
2024/04/14 04:01:36;;;;;;;0.30;0.20;;;16.40;98.90;;;;;;5511106;26;20335;-73
2024/04/14 04:04:02;;;;;;;0.30;0.20;;;16.40;99.00;;;;;;5513243;25;21032;-74
2024/04/14 04:06:28;;;;;;;0.93;0.63;;;16.40;99.00;;;;;;5504321;26;20271;-73
2024/04/14 04:08:53;;;;;;;0.60;0.60;;;16.40;99.00;;;;;;5476170;26;20275;-75
2024/04/14 04:11:19;;;;;;;0.50;0.50;;;16.40;99.00;;;;;;5480543;26;20669;-74
2024/04/14 04:13:45;;;;;;;0.33;0.30;;;16.40;99.10;;;;;;5512426;25;20252;-73
2024/04/14 04:16:11;;;;;;;3.60;2.33;;;16.40;99.10;;;;;;5510533;26;20258;-73
2024/04/14 04:18:36;;;;;;;0.30;0.30;;;16.40;99.10;;;;;;5512223;26;20508;-74
2024/04/14 04:21:07;;;;;;;0.57;0.57;;;16.40;99.10;;;;;;5513351;25;20609;-74
2024/04/14 04:23:33;;;;;;;0.30;0.20;;;16.40;99.20;;;;;;5514270;26;20240;-73
2024/04/14 04:26:00;;;;;;;0.60;0.50;;;16.40;99.20;;;;;;5516282;25;20440;-73
2024/04/14 04:28:29;;;;;;;0.70;0.53;;;16.50;99.20;;;;;;5516000;25;20456;-73
2024/04/14 04:30:56;;;;;;;0.50;0.50;;;16.50;99.20;;;;;;5514794;26;20898;-73
2024/04/14 04:33:24;;;;;;;0.30;0.20;;;16.50;99.20;;;;;;5514586;26;21048;-74
2024/04/14 04:35:53;;;;;;;0.40;0.40;;;16.50;99.20;;;;;;5514745;26;20445;-74
2024/04/14 04:38:19;;;;;;;0.30;0.20;;;16.50;99.20;;;;;;5515719;25;20535;-74
2024/04/14 04:40:44;;;;;;;0.70;0.70;;;16.50;99.20;;;;;;5514362;26;20440;-74
2024/04/14 04:43:10;;;;;;;0.77;0.77;;;16.50;99.30;;;;;;5515257;26;20505;-74
2024/04/14 04:45:36;;;;;;;2.73;0.83;;;16.50;99.40;;;;;;5514113;26;20219;-73
2024/04/14 04:48:01;;;;;;;0.30;0.30;;;16.50;99.40;;;;;;5515821;26;20778;-74
2024/04/14 04:50:28;;;;;;;0.30;0.20;;;16.50;99.50;;;;;;5516001;25;20297;-73
2024/04/14 04:52:55;;;;;;;0.80;0.80;;;16.50;99.60;;;;;;5513840;26;20335;-75
2024/04/14 04:55:21;;;;;;;0.93;0.93;;;16.40;99.70;;;;;;5514489;26;20433;-74
2024/04/14 04:57:46;;;;;;;0.40;0.37;;;16.40;99.80;;;;;;5513454;26;21094;-73
2024/04/14 05:00:13;;;;;;;0.40;0.40;;;16.40;99.90;;;;;;5516518;26;20216;-75
2024/04/14 05:02:38;;;;;;;0.50;0.40;;;16.40;99.90;;;;;;5515150;26;20328;-73
2024/04/14 05:05:04;;;;;;;0.50;0.50;;;16.40;99.90;;;;;;5516137;26;20862;-74
2024/04/14 05:07:32;;;;;;;0.30;0.20;;;16.50;99.90;;;;;;5513407;26;20232;-73
2024/04/14 05:09:58;;;;;;;2.30;0.77;;;16.60;99.90;;;;;;5516261;25;20611;-73
2024/04/14 05:12:23;;;;;;;0.30;0.20;;;16.60;99.90;;;;;;5515240;25;20500;-73
2024/04/14 05:14:49;;;;;;;1.17;0.90;;;16.70;99.90;;;;;;5513769;26;20909;-73
2024/04/14 05:17:15;;;;;;;1.83;0.80;;;16.80;99.90;;;;;;5513293;26;20245;-74
2024/04/14 05:19:40;;;;;;;0.53;0.53;;;16.90;99.90;;;;;;5515913;26;20728;-73
2024/04/14 05:22:06;;;;;;;0.50;0.50;;;17.00;99.90;;;;;;5515174;25;20224;-75
2024/04/14 05:24:32;;;;;;;0.50;0.50;;;17.10;99.90;;;;;;5513586;26;20611;-74
2024/04/14 05:26:57;;;;;;;0.30;0.20;;;17.20;99.90;;;;;;5515342;25;20312;-74
2024/04/14 05:29:25;;;;;;;0.30;0.30;;;17.30;99.90;;;;;;5515403;26;20248;-73
2024/04/14 05:31:51;;;;;;;2.20;1.40;;;17.40;99.90;;;;;;5515165;25;20241;-74
2024/04/14 05:34:17;;;;;;;0.37;0.30;;;17.50;99.90;;;;;;5513807;26;20503;-73
2024/04/14 05:36:44;;;;;;;0.30;0.20;;;17.60;99.90;;;;;;5507430;26;20955;-74
2024/04/14 05:39:10;;;;;;;0.67;0.67;;;17.80;99.90;;;;;;5477143;26;20269;-73
2024/04/14 05:41:35;;;;;;;0.40;0.40;;;17.80;99.90;;;;;;5487550;26;20967;-74
2024/04/14 05:44:01;;;;;;;0.30;0.20;;;17.90;99.90;;;;;;5515281;25;20242;-74
2024/04/14 05:46:27;;;;;;;0.80;0.80;;;18.00;99.90;;;;;;5506907;26;20424;-75
2024/04/14 05:48:53;;;;;;;0.77;0.77;;;18.10;99.90;;;;;;5478194;26;20243;-73
2024/04/14 05:51:19;;;;;;;0.30;0.20;;;18.20;99.90;;;;;;5484133;26;20272;-74
2024/04/14 05:53:46;;;;;;;0.30;0.30;;;18.30;99.90;;;;;;5514886;26;20467;-74
2024/04/14 05:56:12;;;;;;;0.97;0.97;;;18.50;99.90;;;;;;5501240;26;20459;-74
2024/04/14 05:58:37;;;;;;;0.50;0.50;;;18.60;99.90;;;;;;5514822;25;21159;-75
2024/04/14 06:01:06;;;;;;;0.30;0.20;;;18.70;99.90;;;;;;5513165;26;20660;-75
2024/04/14 06:03:32;;;;;;;0.47;0.47;;;18.90;99.90;;;;;;5512732;26;20261;-74
2024/04/14 06:05:59;;;;;;;0.30;0.30;;;19.00;99.90;;;;;;5514966;26;20533;-73
2024/04/14 06:08:25;;;;;;;1.63;1.03;;;19.10;99.90;;;;;;5506187;26;20527;-75
2024/04/14 06:10:50;;;;;;;0.70;0.50;;;19.10;99.90;;;;;;5476493;26;20485;-74
2024/04/14 06:13:16;;;;;;;0.30;0.30;;;19.30;99.90;;;;;;5513033;26;20879;-75
2024/04/14 06:15:43;;;;;;;1.67;1.57;;;19.40;99.90;;;;;;5497773;25;20286;-74
2024/04/14 06:18:09;;;;;;;0.30;0.30;;;19.50;99.90;;;;;;5493809;26;20243;-74
2024/04/14 06:20:38;;;;;;;0.30;0.20;;;19.70;99.90;;;;;;5478146;26;20482;-74
2024/04/14 06:23:04;;;;;;;0.30;0.20;;;19.80;99.90;;;;;;5477992;26;20867;-74
2024/04/14 06:25:29;;;;;;;0.40;0.40;;;19.90;99.90;;;;;;5477917;26;20553;-73
2024/04/14 06:27:55;;;;;;;1.00;0.60;;;20.00;99.90;;;;;;5505944;26;20283;-74
2024/04/14 06:30:20;;;;;;;0.30;0.20;;;20.20;99.90;;;;;;5508653;26;20274;-74
2024/04/14 06:32:46;;;;;;;1.17;1.17;;;20.30;99.90;;;;;;5502475;26;20706;-75
2024/04/14 06:35:12;;;;;;;1.90;0.97;;;20.40;99.90;;;;;;5478084;26;20213;-74
2024/04/14 06:37:38;;;;;;;0.30;0.20;;;20.60;99.90;;;;;;5501120;26;20241;-74
2024/04/14 06:40:04;;;;;;;1.90;1.40;;;20.70;99.90;;;;;;5512682;26;20309;-73
2024/04/14 06:42:29;;;;;;;0.30;0.20;;;20.80;99.90;;;;;;5512203;26;20258;-79
2024/04/14 06:44:55;;;;;;;1.33;0.93;;;21.00;99.90;;;;;;5511492;26;20778;-73
2024/04/14 06:47:21;;;;;;;0.37;0.30;;;21.10;99.90;;;;;;5514047;25;20270;-77
2024/04/14 06:49:47;;;;;;;0.30;0.30;;;21.20;99.40;;;;;;5511537;26;20495;-72
2024/04/14 06:52:13;;;;;;;0.50;0.50;;;21.30;99.60;;;;;;5513638;25;20519;-77
2024/04/14 06:54:39;;;;;;;2.30;1.67;;;21.50;99.70;;;;;;5510024;26;20453;-73
2024/04/14 06:57:04;;;;;;;0.50;0.50;;;21.60;99.60;;;;;;5510882;26;20278;-74
2024/04/14 06:59:30;;;;;;;0.30;0.20;;;21.70;99.30;;;;;;5489235;26;20284;-78
2024/04/14 07:01:56;;;;;;;1.37;0.87;;;21.90;98.90;;;;;;5513130;25;21106;-79
2024/04/14 07:04:22;;;;;;;1.27;1.03;;;22.00;98.60;;;;;;5513491;25;20332;-80
2024/04/14 07:06:47;;;;;;;0.50;0.50;;;22.20;98.40;;;;;;5503841;26;20965;-78
2024/04/14 07:09:13;;;;;;;2.10;0.83;;;22.20;98.00;;;;;;5483667;26;20252;-80
2024/04/14 07:11:39;;;;;;;0.40;0.30;;;22.40;97.90;;;;;;5488549;26;20240;-74
2024/04/14 07:14:05;;;;;;;0.33;0.30;;;22.50;97.90;;;;;;5484860;25;21034;-77
2024/04/14 07:16:30;;;;;;;1.60;1.33;;;22.60;97.30;;;;;;5484315;26;20227;-77
2024/04/14 07:18:56;;;;;;;0.60;0.60;;;22.70;97.00;;;;;;5512742;25;20239;-73
2024/04/14 07:21:21;;;;;;;0.30;0.20;;;22.80;96.80;;;;;;5512967;26;20227;-73
2024/04/14 07:23:47;;;;;;;0.93;0.70;;;22.90;96.70;;;;;;5511914;25;20344;-73
2024/04/14 07:26:13;;;;;;;0.33;0.27;;;23.10;96.60;;;;;;5482034;26;20278;-73
2024/04/14 07:28:38;;;;;;;0.40;0.37;;;23.20;96.20;;;;;;5504892;25;21013;-74
2024/04/14 07:31:04;;;;;;;0.40;0.40;;;23.30;95.80;;;;;;5489949;25;20223;-78
2024/04/14 07:33:30;;;;;;;0.30;0.30;;;23.30;95.60;;;;;;5511135;26;20264;-80
2024/04/14 07:35:55;;;;;;;0.47;0.47;;;23.40;95.30;;;;;;5510461;26;20240;-74
2024/04/14 07:38:21;;;;;;;0.50;0.50;;;23.50;95.30;;;;;;5510604;26;20238;-74
2024/04/14 07:40:46;;;;;;;0.40;0.33;;;23.60;95.50;;;;;;5511775;26;20214;-74
2024/04/14 07:43:12;;;;;;;0.30;0.30;;;23.70;94.60;;;;;;5498792;26;20242;-72
2024/04/14 07:45:38;;;;;;;9.00;1.03;;;23.80;94.40;;;;;;5473018;26;20728;-76
2024/04/14 07:48:04;;;;;;;0.57;0.57;;;23.80;94.50;;;;;;5502513;26;20258;-80
2024/04/14 07:50:29;;;;;;;0.50;0.50;;;23.90;94.20;;;;;;5508699;25;20257;-77
2024/04/14 07:52:55;;;;;;;0.30;0.30;;;24.00;94.00;;;;;;5509581;25;20234;-77
2024/04/14 07:55:21;;;;;;;0.60;0.60;;;24.10;94.10;;;;;;5508602;26;20257;-73
2024/04/14 07:57:46;;;;;;;1.27;1.13;;;24.20;94.10;;;;;;5504866;26;20277;-77
2024/04/14 08:00:12;;;;;;;0.77;0.77;;;24.30;93.50;;;;;;5516698;25;20210;-75
2024/04/14 08:02:38;;;;;;;0.50;0.30;;;24.40;93.10;;;;;;5515288;26;20658;-75
2024/04/14 08:05:04;;;;;;;0.80;0.53;;;24.50;93.30;;;;;;5514392;26;20215;-79
2024/04/14 08:07:30;;;;;;;0.87;0.77;;;24.60;92.80;;;;;;5497629;26;20921;-77
2024/04/14 08:09:55;;;;;;;0.70;0.70;;;24.60;92.80;;;;;;5478223;26;20493;-74
2024/04/14 08:12:21;;;;;;;0.73;0.40;;;24.60;93.10;;;;;;5499495;26;20231;-76
2024/04/14 08:14:47;;;;;;;0.40;0.30;;;24.70;92.70;;;;;;5516731;25;20637;-78
2024/04/14 08:17:13;;;;;;;0.50;0.50;;;24.90;92.70;;;;;;5511010;25;20511;-76
2024/04/14 08:19:39;;;;;;;0.30;0.20;;;24.90;92.70;;;;;;5487292;26;20302;-75
2024/04/14 08:22:05;;;;;;;1.23;0.67;;;25.00;92.50;;;;;;5497606;26;20339;-75
2024/04/14 08:24:31;;;;;;;0.50;0.40;;;25.10;92.80;;;;;;5516588;25;20444;-76
2024/04/14 08:26:56;;;;;;;0.50;0.50;;;25.30;92.30;;;;;;5514687;26;20224;-76
2024/04/14 08:29:22;;;;;;;0.40;0.30;;;25.40;92.10;;;;;;5512484;26;20243;-76
2024/04/14 08:31:48;;;;;;;1.33;0.77;;;25.50;92.20;;;;;;5516101;25;20563;-76
2024/04/14 08:34:14;;;;;;;0.30;0.20;;;25.60;92.30;;;;;;5516387;26;20461;-75
2024/04/14 08:36:39;;;;;;;0.30;0.20;;;25.70;91.80;;;;;;5508096;26;20228;-76
2024/04/14 08:39:05;;;;;;;0.57;0.57;;;25.80;91.60;;;;;;5477774;26;20509;-76
2024/04/14 08:41:35;;;;;;;0.63;0.63;;;25.80;91.60;;;;;;5486136;26;20227;-75
2024/04/14 08:44:01;;;;;;;0.50;0.50;;;25.90;91.30;;;;;;5515771;26;20359;-75
2024/04/14 08:46:31;;;;;;;0.40;0.37;;;26.10;91.50;;;;;;5507964;25;20533;-76
2024/04/14 08:48:58;;;;;;;9.27;1.73;;;26.20;91.40;;;;;;5477241;26;20557;-76
2024/04/14 08:51:24;;;;;;;0.40;0.37;;;26.50;90.90;;;;;;5482811;26;20756;-75
2024/04/14 08:53:53;;;;;;;1.13;0.40;;;27.00;90.00;;;;;;5516004;25;21068;-75
2024/04/14 08:56:19;;;;;;;0.50;0.40;;;27.30;90.00;;;;;;5513701;26;20449;-76
2024/04/14 08:58:45;;;;;;;0.67;0.67;;;27.50;90.00;;;;;;5516149;25;20454;-76
2024/04/14 09:01:14;;;;;;;1.07;0.73;;;27.50;89.60;;;;;;5513862;26;20436;-76
2024/04/14 09:03:39;;;;;;;0.60;0.43;;;27.50;89.40;;;;;;5513668;26;20467;-76
2024/04/14 09:06:06;;;;;;;0.43;0.43;;;27.50;89.10;;;;;;5515374;26;20822;-76
2024/04/14 09:08:32;;;;;;;2.23;2.03;;;27.30;87.40;;;;;;5515350;25;20238;-75
2024/04/14 09:10:58;;;;;;;0.50;0.43;;;27.10;87.80;;;;;;5513845;26;20447;-76
2024/04/14 09:13:28;;;;;;;1.43;1.43;;;27.00;87.40;;;;;;5507445;26;20520;-76
2024/04/14 09:15:56;;;;;;;0.50;0.43;;;26.90;87.30;;;;;;5477126;26;20624;-73
2024/04/14 09:18:22;;;;;;;0.30;0.30;;;26.70;87.80;;;;;;5513709;26;20743;-76
2024/04/14 09:20:48;;;;;;;0.30;0.20;;;26.70;88.40;;;;;;5515867;25;20493;-76
2024/04/14 09:23:14;;;;;;;0.50;0.50;;;26.60;88.10;;;;;;5513251;26;20240;-75
2024/04/14 09:25:40;;;;;;;0.40;0.40;;;26.70;88.10;;;;;;5514018;26;20442;-75
2024/04/14 09:28:14;;;;;;;0.30;0.20;;;26.70;87.50;;;;;;5507288;26;20245;-75
2024/04/14 09:30:40;;;;;;;1.27;1.17;;;26.70;87.30;;;;;;5478669;26;20213;-76
2024/04/14 09:33:06;;;;;;;1.10;1.00;;;26.80;88.40;;;;;;5509573;26;20513;-74
2024/04/14 09:35:33;;;;;;;0.30;0.27;;;26.80;87.60;;;;;;5515554;25;20285;-75
2024/04/14 09:37:59;;;;;;;0.67;0.67;;;26.90;88.20;;;;;;5515039;26;20454;-75
2024/04/14 09:40:25;;;;;;;0.30;0.20;;;27.00;87.60;;;;;;5514020;26;21011;-75
2024/04/14 09:42:57;;;;;;;0.30;0.30;;;27.10;87.40;;;;;;5514595;25;20234;-75
2024/04/14 09:45:24;;;;;;;0.67;0.67;;;27.00;87.00;;;;;;5515454;25;20433;-75
2024/04/14 09:47:53;;;;;;;1.10;0.70;;;27.00;88.00;;;;;;5514888;26;21069;-75
2024/04/14 09:50:22;;;;;;;0.57;0.57;;;27.10;87.30;;;;;;5515275;25;20445;-75
2024/04/14 09:52:52;;;;;;;0.40;0.40;;;27.20;86.10;;;;;;5514620;25;20496;-76
2024/04/14 09:55:19;;;;;;;0.40;0.30;;;27.20;86.10;;;;;;5513510;26;20447;-75
2024/04/14 09:57:45;;;;;;;0.63;0.50;;;27.30;86.00;;;;;;5514536;25;20512;-76
2024/04/14 10:00:11;;;;;;;0.63;0.63;;;27.30;85.80;;;;;;5515391;26;20437;-75
2024/04/14 10:02:41;;;;;;;0.50;0.47;;;27.40;86.00;;;;;;5507040;26;20326;-76
2024/04/14 10:05:09;;;;;;;0.30;0.20;;;27.40;85.40;;;;;;5478365;26;20265;-75
2024/04/14 10:07:37;;;;;;;0.40;0.40;;;27.50;85.40;;;;;;5500793;26;20459;-75
2024/04/14 10:10:05;;;;;;;0.40;0.40;;;27.50;85.70;;;;;;5513337;26;20875;-75
2024/04/14 10:12:33;;;;;;;0.30;0.20;;;27.50;84.80;;;;;;5514506;25;20461;-75
2024/04/14 10:15:03;;;;;;;1.23;0.77;;;27.60;85.90;;;;;;5512961;26;20474;-76
2024/04/14 10:17:29;;;;;;;2.63;1.90;;;27.50;85.20;;;;;;5514586;25;20572;-75
2024/04/14 10:19:58;;;;;;;4.30;2.30;;;27.60;84.90;;;;;;5513974;25;20443;-75
2024/04/14 10:22:31;;;;;;;0.60;0.60;;;27.70;85.30;;;;;;5512890;26;20280;-75
2024/04/14 10:24:57;;;;;;;0.30;0.20;;;27.80;85.50;;;;;;5515183;26;20439;-75
2024/04/14 10:27:23;;;;;;;0.30;0.20;;;27.70;84.60;;;;;;5512815;26;20550;-75
2024/04/14 10:29:59;;;;;;;0.30;0.20;;;27.60;84.00;;;;;;5515153;25;20228;-75
2024/04/14 10:32:25;;;;;;;0.70;0.40;;;27.70;84.50;;;;;;5512535;26;20473;-75
2024/04/14 10:34:51;;;;;;;0.30;0.20;;;27.70;84.70;;;;;;5513580;26;20449;-75
2024/04/14 10:37:27;;;;;;;0.60;0.60;;;27.70;84.30;;;;;;5514137;25;20571;-75
2024/04/14 10:39:54;;;;;;;0.30;0.20;;;27.70;84.60;;;;;;5515104;25;20968;-75
2024/04/14 10:42:24;;;;;;;0.70;0.50;;;27.90;84.30;;;;;;5513761;25;20929;-75
2024/04/14 10:44:50;;;;;;;0.97;0.87;;;27.90;84.30;;;;;;5515019;25;20551;-75
2024/04/14 10:47:19;;;;;;;0.30;0.30;;;27.90;83.20;;;;;;5513966;25;20888;-75
2024/04/14 10:49:50;;;;;;;0.30;0.30;;;27.90;83.20;;;;;;5513029;26;20538;-75
2024/04/14 10:52:16;;;;;;;0.30;0.20;;;28.00;83.40;;;;;;5513845;26;20540;-75
2024/04/14 10:54:42;;;;;;;0.40;0.37;;;28.10;83.70;;;;;;5514774;26;21033;-75
2024/04/14 10:57:09;;;;;;;0.53;0.50;;;28.10;83.00;;;;;;5505858;26;20793;-75
2024/04/14 10:59:35;;;;;;;0.30;0.20;;;28.10;83.00;;;;;;5477798;26;20499;-75
2024/04/14 11:02:01;;;;;;;0.40;0.40;;;28.10;82.70;;;;;;5490429;26;20872;-75
2024/04/14 11:04:28;;;;;;;0.30;0.20;;;28.10;83.00;;;;;;5514247;25;20435;-75
2024/04/14 11:06:55;;;;;;;0.30;0.30;;;28.10;82.70;;;;;;5513521;25;20876;-75
2024/04/14 11:09:22;;;;;;;0.40;0.30;;;28.20;82.80;;;;;;5512271;26;20728;-75
2024/04/14 11:11:49;;;;;;;0.73;0.67;;;28.20;83.30;;;;;;5511727;26;20457;-75
2024/04/14 11:14:20;;;;;;;0.50;0.50;;;28.30;82.00;;;;;;5513467;26;20461;-75
2024/04/14 11:16:46;;;;;;;0.60;0.60;;;28.20;82.20;;;;;;5511596;26;20818;-75
2024/04/14 11:19:12;;;;;;;0.87;0.87;;;28.30;81.50;;;;;;5513976;26;20459;-75
2024/04/14 11:21:38;;;;;;;0.50;0.50;;;28.40;81.00;;;;;;5511749;26;20574;-76
2024/04/14 11:24:08;;;;;;;0.67;0.67;;;28.50;81.70;;;;;;5514229;26;20462;-75
2024/04/14 11:26:34;;;;;;;0.30;0.20;;;28.50;82.30;;;;;;5513674;25;20237;-75
2024/04/14 11:28:59;;;;;;;0.50;0.50;;;28.50;81.70;;;;;;5514274;25;20461;-75
2024/04/14 11:31:25;;;;;;;0.40;0.30;;;28.50;82.60;;;;;;5509656;26;20238;-76
2024/04/14 11:33:52;;;;;;;0.30;0.30;;;28.60;80.70;;;;;;5510289;26;20374;-75
2024/04/14 11:36:18;;;;;;;0.30;0.20;;;28.70;80.30;;;;;;5513081;25;21207;-75
2024/04/14 11:38:47;;;;;;;0.30;0.20;;;28.60;80.40;;;;;;5513118;26;20513;-75
2024/04/14 11:41:13;;;;;;;5.00;1.40;;;28.70;80.70;;;;;;5512286;25;20343;-75
2024/04/14 11:43:39;;;;;;;0.50;0.50;;;28.70;79.20;;;;;;5513280;25;21094;-76
2024/04/14 11:46:04;;;;;;;1.07;0.30;;;28.70;79.80;;;;;;5513732;25;20339;-75
2024/04/14 11:48:30;;;;;;;0.40;0.30;;;28.80;79.10;;;;;;5512703;26;20244;-76
2024/04/14 11:50:55;;;;;;;0.30;0.20;;;28.80;79.10;;;;;;5513681;25;20220;-75
2024/04/14 11:53:21;;;;;;;0.40;0.30;;;28.90;79.60;;;;;;5510814;26;20923;-75
2024/04/14 11:55:47;;;;;;;0.30;0.20;;;29.00;78.80;;;;;;5513477;25;20221;-76
2024/04/14 11:58:16;;;;;;;0.30;0.30;;;29.00;78.50;;;;;;5512579;25;20239;-75
2024/04/14 12:00:42;;;;;;;4.30;1.03;;;29.00;78.30;;;;;;5513297;25;20217;-75
2024/04/14 12:03:08;;;;;;;2.33;0.80;;;29.00;77.90;;;;;;5512545;25;20748;-76
2024/04/14 12:05:34;;;;;;;0.30;0.20;;;28.90;77.80;;;;;;5511560;26;20446;-75
2024/04/14 12:07:59;;;;;;;0.30;0.20;;;29.00;78.50;;;;;;5512210;26;21026;-75
2024/04/14 12:10:25;;;;;;;2.00;0.50;;;29.00;77.70;;;;;;5511223;26;20225;-75
2024/04/14 12:12:51;;;;;;;0.40;0.30;;;29.00;77.90;;;;;;5504586;26;20247;-76
2024/04/14 12:15:17;;;;;;;0.30;0.30;;;29.10;77.20;;;;;;5474490;26;20240;-75
2024/04/14 12:17:42;;;;;;;0.57;0.57;;;29.10;77.50;;;;;;5499748;26;20523;-76
2024/04/14 12:20:08;;;;;;;0.87;0.53;;;29.20;77.50;;;;;;5511766;26;20257;-76
2024/04/14 12:22:34;;;;;;;0.77;0.77;;;29.20;77.10;;;;;;5504355;26;20244;-75
2024/04/14 12:25:00;;;;;;;2.37;0.83;;;29.30;76.10;;;;;;5476637;26;20497;-75
2024/04/14 12:27:26;;;;;;;0.30;0.20;;;29.40;76.50;;;;;;5487064;26;20511;-75
2024/04/14 12:29:52;;;;;;;0.30;0.20;;;29.40;76.20;;;;;;5513024;26;20452;-75
2024/04/14 12:32:17;;;;;;;0.47;0.47;;;29.50;76.40;;;;;;5504359;26;20655;-75
2024/04/14 12:34:43;;;;;;;1.27;0.80;;;29.50;75.20;;;;;;5474164;26;20409;-75
2024/04/14 12:37:09;;;;;;;0.50;0.50;;;29.60;75.70;;;;;;5489825;26;20283;-75
2024/04/14 12:39:34;;;;;;;0.30;0.30;;;29.60;75.50;;;;;;5510899;26;20260;-75
2024/04/14 12:42:00;;;;;;;0.90;0.70;;;29.60;74.50;;;;;;5510418;25;20283;-75